createdAt,value
2022-12-06T00:01:38.884Z,4.10
2022-12-06T00:04:24.548Z,4.10
2022-12-06T00:07:11.695Z,4.10
2022-12-06T00:09:57.629Z,4.00
2022-12-06T00:12:43.710Z,4.10
2022-12-06T00:15:29.455Z,4.10
2022-12-06T00:18:14.863Z,4.30
2022-12-06T00:21:12.802Z,4.30
2022-12-06T00:24:02.434Z,4.30
2022-12-06T00:26:49.141Z,4.30
2022-12-06T00:29:34.837Z,4.20
2022-12-06T00:32:20.204Z,4.20
2022-12-06T00:35:06.460Z,4.10
2022-12-06T00:37:52.006Z,4.10
2022-12-06T00:40:37.507Z,4.20
2022-12-06T00:43:23.089Z,4.10
2022-12-06T00:46:11.972Z,4.00
2022-12-06T00:48:59.634Z,4.00
2022-12-06T00:51:45.339Z,3.90
2022-12-06T00:54:31.051Z,3.90
2022-12-06T00:57:16.415Z,3.90
2022-12-06T01:00:02.448Z,3.80
2022-12-06T01:02:48.015Z,3.80
2022-12-06T01:05:34.636Z,3.70
2022-12-06T01:08:20.731Z,3.70
2022-12-06T01:11:07.053Z,3.70
2022-12-06T01:13:53.039Z,3.70
2022-12-06T01:16:38.989Z,3.70
2022-12-06T01:19:24.309Z,3.70
2022-12-06T01:22:09.792Z,3.60
2022-12-06T01:24:55.368Z,3.50
2022-12-06T01:27:40.852Z,3.40
2022-12-06T01:30:26.693Z,3.30
2022-12-06T01:33:12.396Z,3.20
2022-12-06T01:35:58.130Z,3.20
2022-12-06T01:38:43.566Z,3.30
2022-12-06T01:41:29.175Z,3.30
2022-12-06T01:44:39.435Z,3.20
2022-12-06T01:47:37.788Z,3.10
2022-12-06T01:50:27.364Z,3.00
2022-12-06T01:53:13.156Z,2.90
2022-12-06T01:55:58.841Z,2.80
2022-12-06T01:58:46.602Z,2.70
2022-12-06T02:01:32.506Z,2.70
2022-12-06T02:04:18.834Z,2.60
2022-12-06T02:07:05.522Z,2.60
2022-12-06T02:09:52.060Z,2.60
2022-12-06T02:12:37.748Z,2.60
2022-12-06T02:15:36.174Z,2.60
2022-12-06T02:18:28.468Z,2.50
2022-12-06T02:21:36.117Z,2.60
2022-12-06T02:24:39.569Z,2.50
2022-12-06T02:27:24.977Z,2.40
2022-12-06T02:30:32.109Z,2.40
2022-12-06T02:33:44.745Z,2.50
2022-12-06T02:36:38.614Z,2.50
2022-12-06T02:39:29.455Z,2.60
2022-12-06T02:42:23.194Z,2.60
2022-12-06T02:45:17.218Z,2.70
2022-12-06T02:48:04.536Z,2.70
2022-12-06T02:50:56.387Z,2.70
2022-12-06T02:53:48.150Z,2.70
2022-12-06T02:56:34.542Z,2.80
2022-12-06T02:59:20.725Z,2.80
2022-12-06T03:02:11.276Z,2.80
2022-12-06T03:05:15.927Z,2.80
2022-12-06T03:08:06.759Z,2.80
2022-12-06T03:10:59.325Z,2.70
2022-12-06T03:14:05.495Z,2.70
2022-12-06T03:17:15.396Z,2.80
2022-12-06T03:20:12.272Z,2.80
2022-12-06T03:23:06.461Z,2.80
2022-12-06T03:25:55.386Z,2.90
2022-12-06T03:28:42.741Z,2.90
2022-12-06T03:31:31.755Z,2.90
2022-12-06T03:34:22.094Z,2.90
2022-12-06T03:37:12.426Z,2.90
2022-12-06T03:40:10.282Z,2.80
2022-12-06T03:42:56.381Z,2.70
2022-12-06T03:46:15.953Z,2.70
2022-12-06T03:49:10.244Z,2.70
2022-12-06T03:51:56.214Z,2.70
2022-12-06T03:54:42.899Z,2.60
2022-12-06T03:57:28.508Z,2.60
2022-12-06T04:00:16.710Z,2.70
2022-12-06T04:03:02.463Z,2.60
2022-12-06T04:05:47.914Z,2.70
2022-12-06T04:08:33.650Z,2.70
2022-12-06T04:11:19.516Z,2.70
2022-12-06T04:14:04.952Z,2.60
2022-12-06T04:17:09.219Z,2.60
2022-12-06T04:19:54.779Z,2.60
2022-12-06T04:22:58.781Z,2.50
2022-12-06T04:25:44.454Z,2.50
2022-12-06T04:28:48.310Z,2.40
2022-12-06T04:31:52.912Z,2.40
2022-12-06T04:34:56.896Z,2.30
2022-12-06T04:38:00.922Z,2.30
2022-12-06T04:40:49.618Z,2.40
2022-12-06T04:43:44.537Z,2.50
2022-12-06T04:46:30.368Z,2.60
2022-12-06T04:49:15.687Z,2.50
2022-12-06T04:52:01.965Z,2.60
2022-12-06T04:54:47.540Z,2.70
2022-12-06T04:57:33.353Z,2.90
2022-12-06T05:00:19.323Z,2.80
2022-12-06T05:03:05.022Z,2.80
2022-12-06T05:05:50.631Z,2.90
2022-12-06T05:08:36.123Z,2.80
2022-12-06T05:11:21.842Z,2.70
2022-12-06T05:14:07.416Z,2.70
2022-12-06T05:16:53.157Z,2.60
2022-12-06T05:19:38.671Z,2.50
2022-12-06T05:22:24.147Z,2.50
2022-12-06T05:25:10.098Z,2.50
2022-12-06T05:27:55.581Z,2.60
2022-12-06T05:30:41.136Z,2.50
2022-12-06T05:33:26.458Z,2.50
2022-12-06T05:36:15.501Z,2.50
2022-12-06T05:39:01.126Z,2.50
2022-12-06T05:41:46.782Z,2.50
2022-12-06T05:44:32.243Z,2.50
2022-12-06T05:47:17.772Z,2.50
2022-12-06T05:50:04.561Z,2.60
2022-12-06T05:52:54.537Z,2.70
2022-12-06T05:55:39.903Z,2.80
2022-12-06T05:58:26.539Z,2.80
2022-12-06T06:01:11.895Z,2.80
2022-12-06T06:03:58.215Z,2.70
2022-12-06T06:06:44.159Z,2.70
2022-12-06T06:09:29.537Z,2.70
2022-12-06T06:12:14.875Z,2.80
2022-12-06T06:15:00.549Z,2.80
2022-12-06T06:17:46.126Z,2.80
2022-12-06T06:20:32.015Z,2.80
2022-12-06T06:23:18.010Z,2.80
2022-12-06T06:26:08.154Z,2.90
2022-12-06T06:28:53.726Z,2.80
2022-12-06T06:31:39.288Z,2.80
2022-12-06T06:34:25.734Z,2.80
2022-12-06T06:37:11.404Z,2.80
2022-12-06T06:39:57.245Z,2.80
2022-12-06T06:42:43.325Z,2.80
2022-12-06T06:45:29.245Z,2.90
2022-12-06T06:48:14.946Z,2.90
2022-12-06T06:51:14.898Z,2.90
2022-12-06T06:54:00.692Z,2.90
2022-12-06T06:56:46.549Z,2.90
2022-12-06T06:59:31.946Z,2.80
2022-12-06T07:02:18.168Z,2.90
2022-12-06T07:05:03.640Z,2.80
2022-12-06T07:07:49.244Z,2.80
2022-12-06T07:10:34.983Z,2.80
2022-12-06T07:13:24.615Z,2.80
2022-12-06T07:16:15.841Z,2.70
2022-12-06T07:19:06.178Z,2.70
2022-12-06T07:21:54.251Z,2.80
2022-12-06T07:24:42.866Z,2.70
2022-12-06T07:27:33.376Z,2.80
2022-12-06T07:30:24.157Z,2.90
2022-12-06T07:33:12.955Z,2.80
2022-12-06T07:36:14.199Z,2.90
2022-12-06T07:39:01.052Z,2.90
2022-12-06T07:42:04.815Z,2.90
2022-12-06T07:45:03.099Z,2.90
2022-12-06T07:47:48.864Z,2.90
2022-12-06T07:50:34.432Z,3.00
2022-12-06T07:53:20.156Z,2.90
2022-12-06T07:56:09.458Z,2.90
2022-12-06T07:58:55.134Z,2.90
2022-12-06T08:01:40.876Z,3.00
2022-12-06T08:04:26.572Z,3.10
2022-12-06T08:07:12.308Z,3.20
2022-12-06T08:09:58.721Z,3.10
2022-12-06T08:12:44.506Z,3.20
2022-12-06T08:15:30.082Z,3.20
2022-12-06T08:18:15.297Z,3.30
2022-12-06T08:21:01.427Z,3.30
2022-12-06T08:23:47.253Z,3.20
2022-12-06T08:26:32.814Z,3.20
2022-12-06T08:29:18.675Z,3.30
2022-12-06T08:32:04.681Z,3.40
2022-12-06T08:34:50.113Z,3.40
2022-12-06T08:37:35.630Z,3.40
2022-12-06T08:40:21.142Z,3.40
2022-12-06T08:43:06.599Z,3.50
2022-12-06T08:45:52.641Z,3.50
2022-12-06T08:48:42.817Z,3.50
2022-12-06T08:51:29.696Z,3.60
2022-12-06T08:54:17.701Z,3.60
2022-12-06T08:57:03.325Z,3.60
2022-12-06T08:59:48.653Z,3.70
2022-12-06T09:02:34.256Z,3.80
2022-12-06T09:05:19.976Z,3.80
2022-12-06T09:08:05.465Z,3.70
2022-12-06T09:10:51.406Z,3.80
2022-12-06T09:13:37.966Z,3.90
2022-12-06T09:16:24.575Z,3.90
2022-12-06T09:19:11.839Z,3.90
2022-12-06T09:21:57.529Z,3.70
2022-12-06T09:24:43.170Z,3.80
2022-12-06T09:27:30.917Z,3.90
2022-12-06T09:30:16.749Z,3.90
2022-12-06T09:33:02.346Z,3.90
2022-12-06T09:35:47.951Z,4.00
2022-12-06T09:38:36.451Z,4.10
2022-12-06T09:41:52.557Z,4.20
2022-12-06T09:44:54.609Z,4.40
2022-12-06T09:47:48.183Z,4.30
2022-12-06T09:51:00.218Z,4.40
2022-12-06T09:53:53.649Z,4.40
2022-12-06T09:56:51.860Z,4.50
2022-12-06T10:00:12.616Z,4.50
2022-12-06T10:03:27.743Z,4.60
2022-12-06T10:06:17.206Z,4.70
2022-12-06T10:09:36.629Z,4.70
2022-12-06T10:12:22.248Z,4.90
2022-12-06T10:15:33.097Z,4.90
2022-12-06T10:18:31.693Z,4.90
2022-12-06T10:21:37.380Z,4.90
2022-12-06T10:24:49.088Z,5.00
2022-12-06T10:27:54.678Z,5.10
2022-12-06T10:30:56.049Z,5.10
2022-12-06T10:34:02.992Z,5.20
2022-12-06T10:37:07.077Z,5.10
2022-12-06T10:39:59.926Z,5.10
2022-12-06T10:42:49.650Z,5.00
2022-12-06T10:46:03.068Z,5.00
2022-12-06T10:49:06.380Z,5.10
2022-12-06T10:52:20.493Z,5.20
2022-12-06T10:55:24.719Z,5.40
2022-12-06T10:58:24.740Z,5.50
2022-12-06T11:01:18.829Z,5.60
2022-12-06T11:04:22.636Z,5.80
2022-12-06T11:07:30.744Z,5.90
2022-12-06T11:10:34.054Z,5.90
2022-12-06T11:13:25.958Z,5.90
2022-12-06T11:16:23.384Z,6.00
2022-12-06T11:19:42.916Z,6.00
2022-12-06T11:22:42.790Z,6.10
2022-12-06T11:25:41.504Z,6.20
2022-12-06T11:28:49.281Z,6.20
2022-12-06T11:31:53.275Z,6.30
2022-12-06T11:34:53.335Z,6.30
2022-12-06T11:37:44.172Z,6.30
2022-12-06T11:40:41.943Z,6.40
2022-12-06T11:43:32.613Z,6.40
2022-12-06T11:46:18.687Z,6.40
2022-12-06T11:49:24.211Z,6.40
2022-12-06T11:52:42.832Z,6.50
2022-12-06T11:55:34.387Z,6.50
2022-12-06T11:58:41.748Z,6.50
2022-12-06T12:01:48.670Z,6.40
2022-12-06T12:04:43.093Z,6.40
2022-12-06T12:07:29.187Z,6.50
2022-12-06T12:10:57.667Z,6.40
2022-12-06T12:13:52.370Z,6.40
2022-12-06T12:16:46.517Z,6.40
2022-12-06T12:19:52.128Z,6.40
2022-12-06T12:22:42.859Z,6.40
2022-12-06T12:25:31.066Z,6.50
2022-12-06T12:28:26.331Z,6.40
2022-12-06T12:31:21.864Z,6.40
2022-12-06T12:34:22.912Z,6.30
2022-12-06T12:37:21.965Z,6.20
2022-12-06T12:40:26.374Z,6.20
2022-12-06T12:43:12.578Z,6.20
2022-12-06T12:46:17.865Z,6.20
2022-12-06T12:49:19.078Z,6.20
2022-12-06T12:52:28.144Z,6.20
2022-12-06T12:55:13.874Z,6.30
2022-12-06T12:58:00.540Z,6.30
2022-12-06T13:00:49.220Z,6.30
2022-12-06T13:03:50.691Z,6.30
2022-12-06T13:06:52.785Z,6.30
2022-12-06T13:09:37.995Z,6.30
2022-12-06T13:12:29.815Z,6.30
2022-12-06T13:15:20.097Z,6.40
2022-12-06T13:18:19.415Z,6.30
2022-12-06T13:21:27.804Z,6.30
2022-12-06T13:24:18.223Z,6.30
2022-12-06T13:27:16.103Z,6.30
2022-12-06T13:30:13.996Z,6.30
2022-12-06T13:33:21.249Z,6.30
2022-12-06T13:36:11.863Z,6.30
2022-12-06T13:38:57.398Z,6.20
2022-12-06T13:42:01.083Z,6.20
2022-12-06T13:44:59.684Z,6.20
2022-12-06T13:47:50.441Z,6.20
2022-12-06T13:50:35.870Z,6.20
2022-12-06T13:53:26.665Z,6.20
2022-12-06T13:56:30.132Z,6.20
2022-12-06T13:59:15.997Z,6.10
2022-12-06T14:02:01.459Z,6.20
2022-12-06T14:04:47.088Z,6.10
2022-12-06T14:07:33.862Z,6.10
2022-12-06T14:10:19.694Z,6.10
2022-12-06T14:13:05.337Z,6.10
2022-12-06T14:15:52.468Z,6.00
2022-12-06T14:18:40.747Z,6.00
2022-12-06T14:21:38.670Z,6.00
2022-12-06T14:24:55.051Z,6.00
2022-12-06T14:27:46.540Z,5.90
2022-12-06T14:30:32.346Z,6.00
2022-12-06T14:33:23.111Z,5.90
2022-12-06T14:36:17.772Z,5.90
2022-12-06T14:39:15.575Z,5.80
2022-12-06T14:42:36.232Z,5.80
2022-12-06T14:45:22.092Z,5.80
2022-12-06T14:48:10.918Z,5.80
2022-12-06T14:51:01.390Z,5.80
2022-12-06T14:53:47.134Z,5.90
2022-12-06T14:56:35.345Z,5.90
2022-12-06T15:00:01.568Z,5.80
2022-12-06T15:02:31.431Z,5.70
2022-12-06T15:05:37.153Z,5.70
2022-12-06T15:08:28.525Z,5.60
2022-12-06T15:11:33.755Z,5.60
2022-12-06T15:14:20.787Z,5.60
2022-12-06T15:17:19.733Z,5.60
2022-12-06T15:20:13.615Z,5.50
2022-12-06T15:22:58.905Z,5.30
2022-12-06T15:25:44.196Z,5.30
2022-12-06T15:28:29.826Z,5.20
2022-12-06T15:31:24.063Z,5.20
2022-12-06T15:34:26.811Z,5.20
2022-12-06T15:37:37.999Z,5.10
2022-12-06T15:40:20.748Z,5.10
2022-12-06T15:43:18.186Z,5.10
2022-12-06T15:46:04.982Z,5.10
2022-12-06T15:48:51.846Z,5.00
2022-12-06T15:51:37.049Z,5.00
2022-12-06T15:54:26.540Z,5.00
2022-12-06T15:57:12.184Z,5.10
2022-12-06T15:59:58.316Z,5.10
2022-12-06T16:02:43.838Z,5.10
2022-12-06T16:05:29.426Z,5.10
2022-12-06T16:08:14.982Z,5.10
2022-12-06T16:11:11.877Z,4.90
2022-12-06T16:13:58.307Z,4.90
2022-12-06T16:16:43.961Z,4.90
2022-12-06T16:19:49.654Z,5.00
2022-12-06T16:22:54.249Z,5.10
2022-12-06T16:25:40.259Z,5.10
2022-12-06T16:28:26.615Z,5.10
2022-12-06T16:31:15.664Z,5.00
2022-12-06T16:34:01.330Z,5.10
2022-12-06T16:36:54.656Z,5.10
2022-12-06T16:39:40.240Z,5.10
2022-12-06T16:42:25.734Z,5.20
2022-12-06T16:45:11.462Z,5.10
2022-12-06T16:47:57.269Z,5.10
2022-12-06T16:50:42.752Z,5.00
2022-12-06T16:53:28.235Z,4.90
2022-12-06T16:56:13.569Z,4.90
2022-12-06T16:58:59.059Z,4.80
2022-12-06T17:01:51.007Z,4.80
2022-12-06T17:04:36.900Z,4.70
2022-12-06T17:07:22.906Z,4.70
2022-12-06T17:10:09.178Z,4.60
2022-12-06T17:12:56.716Z,4.60
2022-12-06T17:15:42.675Z,4.60
2022-12-06T17:18:27.999Z,4.70
2022-12-06T17:21:17.121Z,4.60
2022-12-06T17:24:03.522Z,4.60
2022-12-06T17:26:49.151Z,4.50
2022-12-06T17:29:35.382Z,4.50
2022-12-06T17:32:21.117Z,4.50
2022-12-06T17:35:07.048Z,4.40
2022-12-06T17:37:52.653Z,4.40
2022-12-06T17:40:38.276Z,4.30
2022-12-06T17:43:23.643Z,4.20
2022-12-06T17:46:09.222Z,4.10
2022-12-06T17:48:58.724Z,4.10
2022-12-06T17:51:44.694Z,4.10
2022-12-06T17:54:30.411Z,4.00
2022-12-06T17:57:18.331Z,4.00
2022-12-06T18:00:06.193Z,4.00
2022-12-06T18:02:52.198Z,4.00
2022-12-06T18:05:39.702Z,4.00
2022-12-06T18:08:25.046Z,3.90
2022-12-06T18:11:10.416Z,3.90
2022-12-06T18:13:56.454Z,3.80
2022-12-06T18:16:43.786Z,3.90
2022-12-06T18:19:29.283Z,3.80
2022-12-06T18:22:15.661Z,3.80
2022-12-06T18:25:01.550Z,3.80
2022-12-06T18:27:48.854Z,3.80
2022-12-06T18:30:34.848Z,3.80
2022-12-06T18:33:22.573Z,3.80
2022-12-06T18:36:10.013Z,3.80
2022-12-06T18:39:00.490Z,3.80
2022-12-06T18:41:45.774Z,3.90
2022-12-06T18:44:31.409Z,3.90
2022-12-06T18:47:16.679Z,4.00
2022-12-06T18:50:02.375Z,4.00
2022-12-06T18:52:47.843Z,4.00
2022-12-06T18:55:33.502Z,3.90
2022-12-06T18:58:19.051Z,3.90
2022-12-06T19:01:17.909Z,4.00
2022-12-06T19:04:05.392Z,4.10
2022-12-06T19:06:50.675Z,4.10
2022-12-06T19:09:36.549Z,4.20
2022-12-06T19:12:22.025Z,4.20
2022-12-06T19:15:07.887Z,4.30
2022-12-06T19:17:53.634Z,4.30
2022-12-06T19:20:39.107Z,4.20
2022-12-06T19:23:28.662Z,4.10
2022-12-06T19:26:14.183Z,4.20
2022-12-06T19:28:59.577Z,4.30
2022-12-06T19:31:45.664Z,4.30
2022-12-06T19:34:31.591Z,4.20
2022-12-06T19:37:17.696Z,4.30
2022-12-06T19:40:03.849Z,4.20
2022-12-06T19:43:08.025Z,4.10
2022-12-06T19:45:53.709Z,4.10
2022-12-06T19:48:39.544Z,4.00
2022-12-06T19:51:28.217Z,4.10
2022-12-06T19:54:16.692Z,4.20
2022-12-06T19:57:02.596Z,4.30
2022-12-06T19:59:48.451Z,4.20
2022-12-06T20:02:33.920Z,4.20
2022-12-06T20:05:19.238Z,4.20
2022-12-06T20:08:05.167Z,4.10
2022-12-06T20:10:50.585Z,4.10
2022-12-06T20:13:35.877Z,4.00
2022-12-06T20:16:21.505Z,4.10
2022-12-06T20:19:07.675Z,4.00
2022-12-06T20:21:53.297Z,4.10
2022-12-06T20:24:39.408Z,4.10
2022-12-06T20:27:44.850Z,4.10
2022-12-06T20:30:31.820Z,4.10
2022-12-06T20:33:17.143Z,4.20
2022-12-06T20:36:02.828Z,4.20
2022-12-06T20:38:48.286Z,4.10
2022-12-06T20:41:34.322Z,4.10
2022-12-06T20:44:20.830Z,4.20
2022-12-06T20:47:06.662Z,4.30
2022-12-06T20:49:52.089Z,4.40
2022-12-06T20:52:37.601Z,4.40
2022-12-06T20:55:23.016Z,4.30
2022-12-06T20:58:08.716Z,4.30
2022-12-06T21:00:54.366Z,4.20
2022-12-06T21:03:40.310Z,4.30
2022-12-06T21:06:26.379Z,4.40
2022-12-06T21:09:11.761Z,4.40
2022-12-06T21:11:57.724Z,4.40
2022-12-06T21:14:43.294Z,4.40
2022-12-06T21:17:32.924Z,4.40
2022-12-06T21:20:18.459Z,4.40
2022-12-06T21:23:04.100Z,4.30
2022-12-06T21:25:49.560Z,4.20
2022-12-06T21:28:35.862Z,4.20
2022-12-06T21:31:25.765Z,4.30
2022-12-06T21:34:13.405Z,4.40
2022-12-06T21:37:03.079Z,4.40
2022-12-06T21:39:48.760Z,4.30
2022-12-06T21:42:34.364Z,4.30
2022-12-06T21:45:20.057Z,4.20
2022-12-06T21:48:06.983Z,4.20
2022-12-06T21:50:52.888Z,4.00
2022-12-06T21:53:39.055Z,4.20
2022-12-06T21:56:26.659Z,4.20
2022-12-06T21:59:12.270Z,4.10
2022-12-06T22:01:58.223Z,4.20
2022-12-06T22:04:44.432Z,4.20
2022-12-06T22:07:32.862Z,4.10
2022-12-06T22:10:18.354Z,4.20
2022-12-06T22:13:04.181Z,4.20
2022-12-06T22:15:49.511Z,4.10
2022-12-06T22:18:41.154Z,4.20
2022-12-06T22:21:32.037Z,4.20
2022-12-06T22:24:17.785Z,4.20
2022-12-06T22:27:03.048Z,4.30
2022-12-06T22:29:48.786Z,4.30
2022-12-06T22:32:34.604Z,4.20
2022-12-06T22:35:20.100Z,4.10
2022-12-06T22:38:05.786Z,4.10
2022-12-06T22:40:56.499Z,4.10
2022-12-06T22:43:41.734Z,4.10
2022-12-06T22:46:28.111Z,4.10
2022-12-06T22:49:17.866Z,4.10
2022-12-06T22:52:03.788Z,4.10
2022-12-06T22:54:49.239Z,4.20
2022-12-06T22:57:34.734Z,4.20
2022-12-06T23:00:20.117Z,4.20
2022-12-06T23:03:05.911Z,4.20
2022-12-06T23:06:00.739Z,4.10
2022-12-06T23:08:47.392Z,4.10
2022-12-06T23:11:34.414Z,4.20
2022-12-06T23:14:20.218Z,4.20
2022-12-06T23:17:05.745Z,4.20
2022-12-06T23:19:51.103Z,4.20
2022-12-06T23:22:36.606Z,4.20
2022-12-06T23:25:21.922Z,4.10
2022-12-06T23:28:07.362Z,4.10
2022-12-06T23:30:52.648Z,4.10
2022-12-06T23:33:38.311Z,4.00
2022-12-06T23:36:26.823Z,4.10
2022-12-06T23:39:13.011Z,4.00
2022-12-06T23:41:58.984Z,4.00
2022-12-06T23:44:44.947Z,4.00
2022-12-06T23:47:30.422Z,4.10
2022-12-06T23:50:15.907Z,4.10
2022-12-06T23:53:01.658Z,4.10
2022-12-06T23:55:47.122Z,4.10
2022-12-06T23:58:33.610Z,4.10
